FW0315 Weather Reports


Display with metric or nautical units.
time (UTC)temp
F
wind
direction
speed
MPH
gust
MPH
rain 1hr
in
rain 24hr
in
rain mn
in
humidity
%
barometer
mb
20180625082012 51 257 1.0 3.0 0.00 0.00 0.00 88 1014.9
20180625081511 51 135 1.0 2.0 0.00 0.00 0.00 88 1014.9
20180625081012 51 286 2.0 4.0 0.00 0.00 0.00 88 1014.9
20180625080511 51 112 0.0 1.0 0.00 0.00 0.00 88 1015.0
20180625080012 51 278 1.0 2.0 0.00 0.00 0.00 88 1014.9
20180625075012 51 265 2.0 4.0 0.00 0.00 0.00 88 1015.0
20180625074511 51 208 0.0 1.0 0.00 0.00 0.00 88 1015.1
20180625074011 51 257 2.0 3.0 0.00 0.00 0.00 88 1015.1
20180625073511 51 264 2.0 4.0 0.00 0.00 0.00 87 1015.0
20180625073011 51 264 4.0 7.0 0.00 0.00 0.00 88 1014.9
20180625072511 51 248 0.0 2.0 0.00 0.00 0.00 88 1014.9
20180625072011 51 257 1.0 4.0 0.00 0.00 0.00 88 1015.0
20180625071510 51 72 1.0 3.0 0.00 0.00 0.00 87 1015.0
20180625071011 51 204 2.0 4.0 0.00 0.00 0.00 88 1015.1
20180625070511 51 245 2.0 5.0 0.00 0.00 0.00 88 1015.1
20180625065511 51 243 3.0 6.0 0.00 0.00 0.00 88 1015.1
20180625065012 51 267 2.0 4.0 0.00 0.00 0.00 88 1015.1
20180625064511 52 269 2.0 6.0 0.00 0.00 0.00 88 1015.1
20180625064012 52 261 3.0 6.0 0.00 0.00 0.00 88 1015.1
20180625063511 52 242 2.0 5.0 0.00 0.00 0.00 88 1015.1
20180625063012 52 284 2.0 7.0 0.00 0.00 0.00 88 1015.2
20180625062510 52 211 2.0 4.0 0.00 0.00 0.00 88 1015.1
20180625062011 52 257 3.0 5.0 0.00 0.00 0.00 87 1015.1
20180625061511 52 201 1.0 3.0 0.00 0.00 0.00 87 1015.2
20180625061013 52 331 2.0 6.0 0.00 0.00 0.00 87 1015.1
20180625060511 52 300 2.0 4.0 0.00 0.00 0.00 87 1015.2
20180625060013 52 261 2.0 4.0 0.00 0.00 0.00 86 1015.2
20180625055511 52 253 2.0 7.0 0.00 0.00 0.00 87 1015.3
20180625055012 52 269 1.0 5.0 0.00 0.00 0.00 87 1015.3
20180625054510 52 45 3.0 6.0 0.00 0.00 0.00 87 1015.2
20180625054012 52 260 4.0 7.0 0.00 0.00 0.00 87 1015.2
20180625053511 52 263 3.0 7.0 0.00 0.00 0.00 87 1015.3
20180625053012 52 269 3.0 6.0 0.00 0.00 0.00 87 1015.1
20180625052511 52 206 3.0 6.0 0.00 0.00 0.00 87 1015.3
20180625052012 52 291 2.0 5.0 0.00 0.00 0.00 87 1015.3
20180625051511 52 223 2.0 4.0 0.00 0.00 0.00 87 1015.3
20180625051012 52 137 2.0 4.0 0.00 0.00 0.00 87 1015.2
20180625050512 52 212 3.0 6.0 0.00 0.00 0.00 87 1015.1
20180625050017 52 278 2.0 5.0 0.00 0.00 0.00 87 1015.2
20180625045511 52 175 2.0 5.0 0.00 0.00 0.00 87 1015.2
20180625045012 53 102 1.0 5.0 0.00 0.00 0.00 87 1015.0
20180625044511 52 224 1.0 3.0 0.00 0.00 0.00 87 1015.1
20180625044012 52 249 3.0 6.0 0.00 0.00 0.00 86 1015.0
20180625043511 52 269 4.0 7.0 0.00 0.00 0.00 87 1015.1
20180625043013 53 264 3.0 6.0 0.00 0.00 0.00 86 1015.0
20180625042512 53 265 3.0 5.0 0.00 0.00 0.00 86 1015.1
20180625042012 53 254 2.0 5.0 0.00 0.00 0.00 86 1015.1
20180625041511 53 208 4.0 7.0 0.00 0.00 0.00 86 1015.1
20180625041013 53 248 2.0 5.0 0.00 0.00 0.00 85 1014.9
20180625040511 53 42 0.0 2.0 0.00 0.00 0.00 85 1015.0
20180625040009 53 98 2.0 3.0 0.00 0.00 0.00 85 1014.8
20180625035511 54 194 1.0 4.0 0.00 0.00 0.00 83 1014.7
20180625035012 54 247 2.0 4.0 0.00 0.00 0.00 84 1014.7
20180625034512 54 152 1.0 4.0 0.00 0.00 0.00 83 1014.8
20180625034012 55 258 1.0 4.0 0.00 0.00 0.00 82 1014.7
20180625033512 55 149 0.0 2.0 0.00 0.00 0.00 82 1014.8
20180625033012 55 335 2.0 6.0 0.00 0.00 0.00 81 1014.7
20180625032511 55 95 1.0 3.0 0.00 0.00 0.00 80 1014.8
20180625032013 56 263 4.0 8.0 0.00 0.00 0.00 79 1014.7
20180625031512 56 166 1.0 4.0 0.00 0.00 0.00 78 1014.6
20180625031012 56 253 1.0 3.0 0.00 0.00 0.00 77 1014.6
20180625030511 57 273 4.0 7.0 0.00 0.00 0.00 75 1014.4
20180625030013 58 251 5.0 9.0 0.00 0.00 0.00 73 1014.6
20180625025511 58 267 6.0 10.0 0.00 0.00 0.00 72 1014.4
20180625025012 58 262 5.0 10.0 0.00 0.00 0.00 72 1014.4
20180625024511 59 254 6.0 11.0 0.00 0.00 0.00 72 1014.3
20180625024012 59 269 7.0 11.0 0.00 0.00 0.00 71 1014.4
20180625023511 59 269 7.0 13.0 0.00 0.00 0.00 71 1014.4
20180625023012 60 257 5.0 10.0 0.00 0.00 0.00 72 1014.4
20180625022511 60 266 5.0 8.0 0.00 0.00 0.00 73 1014.4
20180625022011 59 279 5.0 11.0 0.00 0.00 0.00 73 1014.2
20180625021512 59 263 7.0 12.0 0.00 0.00 0.00 74 1014.3
20180625021012 60 272 7.0 13.0 0.00 0.00 0.00 74 1014.2
20180625020514 60 256 6.0 10.0 0.00 0.00 0.00 74 1014.2
20180625020015 60 234 5.0 10.0 0.00 0.00 0.00 73 1014.1
20180625015511 60 274 7.0 13.0 0.00 0.00 0.00 72 1014.2
20180625015012 61 265 6.0 11.0 0.00 0.00 0.00 71 1014.2
20180625014511 61 258 5.0 11.0 0.00 0.00 0.00 71 1014.1
20180625014012 61 259 6.0 10.0 0.00 0.00 0.00 71 1014.2
20180625013511 61 263 7.0 12.0 0.00 0.00 0.00 70 1014.2
20180625013012 62 254 7.0 11.0 0.00 0.00 0.00 69 1014.1
20180625012511 63 274 7.0 10.0 0.00 0.00 0.00 68 1014.2
20180625012013 64 252 5.0 12.0 0.00 0.00 0.00 67 1014.0
20180625011512 64 264 6.0 9.0 0.00 0.00 0.00 67 1014.0
20180625011012 64 249 4.0 6.0 0.00 0.00 0.00 67 1014.0
20180625010511 64 262 6.0 10.0 0.00 0.00 0.00 66 1014.0
20180625010013 64 220 6.0 9.0 0.00 0.00 0.00 66 1014.1
20180625005511 65 257 6.0 11.0 0.00 0.00 0.00 65 1014.1
20180625005013 65 249 6.0 10.0 0.00 0.00 0.00 64 1014.2
20180625004511 65 247 6.0 9.0 0.00 0.00 0.00 64 1014.2
20180625004011 66 260 4.0 8.0 0.00 0.00 0.00 64 1014.3
20180625003512 66 257 6.0 10.0 0.00 0.00 0.00 63 1014.3
20180625003013 67 254 5.0 10.0 0.00 0.00 0.00 62 1014.2
20180625002511 67 268 5.0 10.0 0.00 0.00 0.00 61 1014.3
20180625002012 68 256 3.0 5.0 0.00 0.00 0.00 61 1014.4
20180625001511 67 234 3.0 7.0 0.00 0.00 0.00 62 1014.4
20180625001012 67 232 6.0 10.0 0.00 0.00 0.00 61 1014.3
20180625000512 68 281 7.0 13.0 0.00 0.00 0.00 61 1014.4
20180625000013 68 269 5.0 9.0 0.00 0.00 0.00 61 1014.4
20180624235512 68 265 6.0 11.0 0.00 0.00 0.00 60 1014.3
20180624235012 68 273 7.0 10.0 0.00 0.00 0.00 60 1014.4
20180624234511 68 257 6.0 10.0 0.00 0.00 0.00 60 1014.3
20180624234012 68 265 7.0 13.0 0.00 0.00 0.00 60 1014.3
20180624233511 69 250 7.0 13.0 0.00 0.00 0.00 59 1014.4
20180624233013 69 275 6.0 10.0 0.00 0.00 0.00 59 1014.3
20180624232512 70 269 7.0 13.0 0.00 0.00 0.00 58 1014.4
20180624232012 70 237 6.0 11.0 0.00 0.00 0.00 58 1014.4
20180624231511 70 228 5.0 9.0 0.00 0.00 0.00 58 1014.4
20180624231012 70 259 6.0 11.0 0.00 0.00 0.00 58 1014.4
20180624230511 70 264 6.0 9.0 0.00 0.00 0.00 58 1014.4
20180624230013 70 263 6.0 11.0 0.00 0.00 0.00 58 1014.4
20180624225511 70 250 6.0 10.0 0.00 0.00 0.00 58 1014.4
20180624225012 70 260 7.0 13.0 0.00 0.00 0.00 57 1014.3
20180624224511 71 266 7.0 15.0 0.00 0.00 0.00 57 1014.3
20180624224012 71 257 8.0 14.0 0.00 0.00 0.00 56 1014.3
20180624223512 71 266 6.0 13.0 0.00 0.00 0.00 56 1014.2
20180624223013 71 271 5.0 10.0 0.00 0.00 0.00 56 1014.1
20180624222511 72 249 5.0 9.0 0.00 0.00 0.00 56 1014.2
20180624222012 72 263 5.0 9.0 0.00 0.00 0.00 55 1014.2
20180624221512 72 283 7.0 15.0 0.00 0.00 0.00 55 1014.3
20180624221012 73 261 2.0 5.0 0.00 0.00 0.00 55 1014.2
20180624220512 72 251 3.0 6.0 0.00 0.00 0.00 56 1014.2
20180624220014 72 204 2.0 5.0 0.00 0.00 0.00 55 1014.3
20180624215511 72 263 4.0 9.0 0.00 0.00 0.00 54 1014.4
20180624215012 73 248 2.0 5.0 0.00 0.00 0.00 54 1014.4
20180624214511 73 195 2.0 6.0 0.00 0.00 0.00 55 1014.3
20180624214012 73 260 3.0 7.0 0.00 0.00 0.00 54 1014.4
20180624213512 73 259 3.0 7.0 0.00 0.00 0.00 53 1014.3
20180624213012 74 258 2.0 6.0 0.00 0.00 0.00 51 1014.2
20180624212511 74 259 4.0 10.0 0.00 0.00 0.00 52 1014.2
20180624212012 75 92 2.0 6.0 0.00 0.00 0.00 51 1014.2
20180624211511 75 267 4.0 7.0 0.00 0.00 0.00 51 1014.3
20180624210511 74 250 2.0 6.0 0.00 0.00 0.00 51 1014.3
20180624210013 74 255 3.0 5.0 0.00 0.00 0.00 51 1014.3
20180624205511 74 233 3.0 8.0 0.00 0.00 0.00 51 1014.3
20180624205012 74 254 3.0 8.0 0.00 0.00 0.00 51 1014.2
20180624204511 74 187 5.0 9.0 0.00 0.00 0.00 51 1014.3
20180624204012 74 228 4.0 9.0 0.00 0.00 0.00 50 1014.3
20180624203511 74 202 4.0 9.0 0.00 0.00 0.00 51 1014.3
20180624203012 74 256 5.0 9.0 0.00 0.00 0.00 51 1014.2
20180624202511 74 257 3.0 7.0 0.00 0.00 0.00 51 1014.3
20180624202013 74 246 5.0 9.0 0.00 0.00 0.00 51 1014.3
20180624201511 75 273 5.0 9.0 0.00 0.00 0.00 51 1014.4
20180624201012 75 223 4.0 8.0 0.00 0.00 0.00 50 1014.2
20180624200511 74 223 3.0 7.0 0.00 0.00 0.00 51 1014.2
20180624200013 74 203 4.0 7.0 0.00 0.00 0.00 50 1014.2
20180624195510 74 272 4.0 7.0 0.00 0.00 0.00 50 1014.2
20180624195012 74 269 3.0 7.0 0.00 0.00 0.00 50 1014.3
20180624194511 74 222 3.0 7.0 0.00 0.00 0.00 50 1014.1
20180624194012 74 275 4.0 8.0 0.00 0.00 0.00 50 1014.3
20180624193511 74 262 4.0 7.0 0.00 0.00 0.00 50 1014.2
20180624193012 74 213 3.0 6.0 0.00 0.00 0.00 51 1014.1
20180624192510 74 240 4.0 8.0 0.00 0.00 0.00 51 1014.1
20180624192012 74 246 3.0 7.0 0.00 0.00 0.00 51 1014.2
20180624191511 74 281 4.0 8.0 0.00 0.00 0.00 51 1014.1
20180624191012 73 260 2.0 5.0 0.00 0.00 0.00 51 1014.1
20180624190511 73 271 2.0 8.0 0.00 0.00 0.00 51 1014.0
20180624190014 73 254 2.0 5.0 0.00 0.00 0.00 51 1014.1
20180624185511 73 252 4.0 7.0 0.00 0.00 0.00 52 1014.1
20180624185012 73 271 4.0 8.0 0.00 0.00 0.00 50 1014.1
20180624184511 73 255 4.0 7.0 0.00 0.00 0.00 52 1014.1
20180624184011 73 269 2.0 6.0 0.00 0.00 0.00 52 1014.0
20180624183512 73 255 4.0 7.0 0.00 0.00 0.00 52 1014.0
20180624183012 73 248 4.0 6.0 0.00 0.00 0.00 52 1014.0
20180624182511 73 321 2.0 6.0 0.00 0.00 0.00 52 1013.9
20180624182012 73 244 3.0 5.0 0.00 0.00 0.00 53 1013.9
20180624181512 72 256 1.0 4.0 0.00 0.00 0.00 53 1014.1
20180624181012 71 249 2.0 5.0 0.00 0.00 0.00 53 1013.9
20180624180511 71 275 6.0 8.0 0.00 0.00 0.00 52 1013.9
20180624180012 72 246 4.0 7.0 0.00 0.00 0.00 53 1013.9
20180624175511 71 69 1.0 3.0 0.00 0.00 0.00 54 1013.9
20180624175012 70 163 2.0 4.0 0.00 0.00 0.00 55 1013.8
20180624174511 69 93 2.0 5.0 0.00 0.00 0.00 55 1013.8
20180624174012 69 286 4.0 6.0 0.00 0.00 0.00 55 1013.8
20180624173511 69 265 5.0 8.0 0.00 0.00 0.00 56 1013.7
20180624173012 69 252 3.0 6.0 0.00 0.00 0.00 54 1013.7
20180624172512 69 268 5.0 9.0 0.00 0.00 0.00 53 1013.6
20180624172012 69 253 3.0 6.0 0.00 0.00 0.00 55 1013.7
20180624171511 69 252 2.0 4.0 0.00 0.00 0.00 55 1013.6
20180624170014 68 86 2.0 4.0 0.00 0.00 0.00 55 1013.4
20180624165512 68 271 4.0 6.0 0.00 0.00 0.00 55 1013.3
20180624165012 68 262 2.0 4.0 0.00 0.00 0.00 54 1013.4
20180624164512 69 273 4.0 6.0 0.00 0.00 0.00 54 1013.3
20180624164012 69 136 1.0 3.0 0.00 0.00 0.00 55 1013.3
20180624163512 69 250 1.0 3.0 0.00 0.00 0.00 55 1013.2
20180624163012 69 270 3.0 5.0 0.00 0.00 0.00 54 1013.2
20180624162511 69 270 1.0 3.0 0.00 0.00 0.00 55 1013.2
20180624162011 69 157 0.0 2.0 0.00 0.00 0.00 56 1013.1
20180624161512 67 112 0.0 2.0 0.00 0.00 0.00 58 1013.0
20180624161012 67 257 2.0 3.0 0.00 0.00 0.00 57 1013.1
20180624160511 68 282 2.0 4.0 0.00 0.00 0.00 58 1013.0
20180624160013 68 245 1.0 2.0 0.00 0.00 0.00 58 1013.0
20180624155511 67 270 1.0 3.0 0.00 0.00 0.00 58 1012.8
20180624155013 68 250 1.0 2.0 0.00 0.00 0.00 57 1012.8
20180624154511 68 270 2.0 3.0 0.00 0.00 0.00 57 1012.6
20180624154011 67 229 0.0 0.0 0.00 0.00 0.00 59 1012.6
20180624153512 67 270 0.0 1.0 0.00 0.00 0.00 59 1012.5
20180624153012 67 135 1.0 3.0 0.00 0.00 0.00 60 1012.6
20180624152511 66 137 1.0 3.0 0.00 0.00 0.00 60 1012.6
20180624152012 66 144 2.0 4.0 0.00 0.00 0.00 60 1012.5
20180624151511 66 137 2.0 3.0 0.00 0.00 0.00 59 1012.4
20180624151011 66 138 1.0 3.0 0.00 0.00 0.00 58 1012.3
20180624150511 66 136 1.0 3.0 0.00 0.00 0.00 57 1012.3
20180624150013 67 127 1.0 3.0 0.00 0.00 0.00 56 1012.3
20180624145511 67 135 0.0 2.0 0.00 0.00 0.00 55 1012.1
20180624145012 68 145 0.0 2.0 0.00 0.00 0.00 53 1012.1
20180624144512 69 246 1.0 2.0 0.00 0.00 0.00 50 1012.0
20180624144012 71 112 0.0 2.0 0.00 0.00 0.00 45 1012.0
20180624143511 73 112 0.0 0.0 0.00 0.00 0.00 40 1012.0
20180624143012 74 112 0.0 1.0 0.00 0.00 0.00 38 1011.9
20180624142511 74 112 0.0 0.0 0.00 0.00 0.00 37 1011.9
20180624142012 73 112 0.0 0.0 0.00 0.00 0.00 37 1011.9
20180624141510 73 112 0.0 0.0 0.00 0.00 0.00 37 1011.9
20180624141012 73 112 0.0 0.0 0.00 0.00 0.00 37 1011.9
20180624140510 73 90 0.0 0.0 0.00 0.00 0.00 37 1011.8
20180624140013 73 337 0.0 0.0 0.00 0.00 0.00 36 1011.8
20180624135511 72 337 0.0 0.0 0.00 0.00 0.00 36 1011.7
20180624135012 72 341 0.0 1.0 0.00 0.00 0.00 37 1011.6
20180624134511 71 337 0.0 0.0 0.00 0.00 0.00 37 1011.6
20180624134012 71 304 0.0 0.0 0.00 0.00 0.00 37 1011.7
20180624133511 71 337 0.0 0.0 0.00 0.00 0.00 37 1011.6
20180624133011 71 337 0.0 0.0 0.00 0.00 0.00 37 1011.5
20180624132511 71 337 0.0 0.0 0.00 0.00 0.00 38 1011.5
20180624132012 71 337 0.0 0.0 0.00 0.00 0.00 38 1011.5
20180624131511 71 360 0.0 0.0 0.00 0.00 0.00 38 1011.4
20180624131013 71 360 0.0 0.0 0.00 0.00 0.00 38 1011.4
20180624130511 71 360 0.0 0.0 0.00 0.00 0.00 38 1011.4
20180624130013 70 360 0.0 0.0 0.00 0.00 0.00 38 1011.4
20180624125511 70 360 0.0 0.0 0.00 0.00 0.00 38 1011.4
20180624125012 70 337 0.0 0.0 0.00 0.00 0.00 38 1011.4
20180624124511 70 337 0.0 0.0 0.00 0.00 0.00 38 1011.4
20180624124011 70 337 0.0 0.0 0.00 0.00 0.00 38 1011.5
20180624123511 71 337 0.0 0.0 0.00 0.00 0.00 38 1011.4
20180624123012 70 337 0.0 0.0 0.00 0.00 0.00 38 1011.4
20180624122511 70 337 0.0 0.0 0.00 0.00 0.00 38 1011.3
20180624122013 70 292 0.0 0.0 0.00 0.00 0.00 39 1011.2
20180624121511 70 315 0.0 0.0 0.00 0.00 0.00 39 1011.1
20180624121011 70 270 0.0 0.0 0.00 0.00 0.00 39 1011.1
20180624120511 70 270 0.0 0.0 0.00 0.00 0.00 39 1011.1
20180624120013 69 270 0.0 0.0 0.00 0.00 0.00 39 1011.1
20180624115512 69 270 0.0 0.0 0.00 0.00 0.00 41 1011.1
20180624115011 68 270 0.0 0.0 0.00 0.00 0.00 42 1011.1
20180624114511 67 270 0.0 0.0 0.00 0.00 0.00 43 1011.1
20180624114011 66 270 0.0 0.0 0.00 0.00 0.00 45 1011.1
20180624113513 65 270 0.0 0.0 0.00 0.00 0.00 46 1011.1
20180624113011 64 270 0.0 0.0 0.00 0.00 0.00 48 1011.2
20180624112511 64 270 0.0 0.0 0.00 0.00 0.00 49 1011.1
20180624112012 64 270 0.0 0.0 0.00 0.00 0.00 47 1011.1
20180624111511 65 270 0.0 0.0 0.00 0.00 0.00 47 1011.1
20180624111011 65 270 0.0 0.0 0.00 0.00 0.00 47 1011.1
20180624110515 65 270 0.0 0.0 0.00 0.00 0.00 46 1011.1
20180624110012 65 270 0.0 0.0 0.00 0.00 0.00 45 1011.1
20180624105511 66 270 0.0 0.0 0.00 0.00 0.00 45 1011.1
20180624105012 66 270 0.0 0.0 0.00 0.00 0.00 46 1011.1
20180624104511 66 270 0.0 0.0 0.00 0.00 0.00 47 1011.1
20180624104012 66 270 0.0 0.0 0.00 0.00 0.00 46 1011.1
20180624103510 67 270 0.0 0.0 0.00 0.00 0.00 46 1011.0
20180624103012 68 270 0.0 0.0 0.00 0.00 0.00 44 1011.1
20180624102511 69 270 0.0 0.0 0.00 0.00 0.00 41 1011.0
20180624102011 69 270 0.0 0.0 0.00 0.00 0.00 38 1011.0
20180624101511 70 270 0.0 0.0 0.00 0.00 0.00 37 1011.0
20180624101011 70 270 0.0 0.0 0.00 0.00 0.00 36 1011.0
20180624100511 69 270 0.0 0.0 0.00 0.00 0.00 37 1011.0
20180624100013 69 270 0.0 0.0 0.00 0.00 0.00 39 1011.0
20180624095511 69 270 0.0 0.0 0.00 0.00 0.00 39 1011.0
20180624095011 70 270 0.0 0.0 0.00 0.00 0.00 39 1011.0
20180624094510 71 270 0.0 0.0 0.00 0.00 0.00 37 1011.0
20180624094011 72 270 0.0 0.0 0.00 0.00 0.00 34 1011.0
20180624093511 73 270 0.0 1.0 0.00 0.00 0.00 33 1010.9
20180624093011 72 22 0.0 0.0 0.00 0.00 0.00 34 1011.0
20180624092512 72 22 0.0 0.0 0.00 0.00 0.00 34 1010.9
20180624091015 71 22 0.0 0.0 0.00 0.00 0.00 36 1011.0
20180624090514 70 337 0.0 0.0 0.00 0.00 0.00 37 1011.0
20180624090013 70 337 0.0 0.0 0.00 0.00 0.00 38 1011.1
20180624085511 69 337 0.0 0.0 0.00 0.00 0.00 38 1011.2
20180624085012 69 337 0.0 0.0 0.00 0.00 0.00 39 1011.2
20180624084511 68 337 0.0 0.0 0.00 0.00 0.00 41 1011.2
20180624084012 68 337 0.0 0.0 0.00 0.00 0.00 42 1011.2
20180624083510 68 337 0.0 0.0 0.00 0.00 0.00 44 1011.3
20180624083012 67 337 0.0 0.0 0.00 0.00 0.00 45 1011.3
20180624082510 67 337 0.0 0.0 0.00 0.00 0.00 47 1011.3